»·PEaware :: N9212X L52-L88

N9212X :: L52-L88

FLIGHT INFORMATION

Flight Status: Arrived
Operator: Privately registered:
United States
More flights under this callsign
Pilot: Doug A. (36382)
Aircraft: CESSNA 172 SKYHAWK
(C172)
More flights by this aircraft type
Origin: L52 Oceano Co
United States
Destination: L88 New Cuyama
United States
More flights between these airports :: More routes between these airports
Route:
File this flight plan on PilotEdge
Remarks:
Altitude:
(Current/Filed)
5,500ft
Speed:
(Current/Filed)
100kts
Departed: 08-Sep-21 07:00 PM
Arrived: 08-Sep-21 07:35 PM
Distance/Time
Traveled:
47nm/0:35
Distance/Time
To Go:
Arrived

Flight Plot

Page will automatically refresh every two minutes.


Map Options




Map Legend


Flown Route
Filed Route
Departure Airport
Arrival Airport
Navaid (VOR, NDB)
Fix

Horizontal Profiles

Position Reports

Time Latitude Longitude Heading Altitude Ground
Speed
08-Sep-21 18:46 35.102802 -120.623604 214 15ft 0kts
08-Sep-21 18:47 35.102802 -120.623604 214 15ft 0kts
08-Sep-21 18:48 35.102802 -120.623604 214 15ft 0kts
08-Sep-21 18:49 35.102802 -120.623604 214 15ft 0kts
08-Sep-21 18:50 35.102657 -120.623528 115 15ft 0kts
08-Sep-21 18:54 35.102635 -120.623487 119 15ft 0kts
08-Sep-21 18:55 35.102335 -120.622850 124 16ft 6kts
08-Sep-21 18:56 35.101150 -120.622566 131 15ft 2kts
08-Sep-21 18:57 35.100271 -120.620901 122 17ft 7kts
08-Sep-21 18:58 35.099553 -120.619566 72 17ft 0kts
08-Sep-21 18:59 35.101092 -120.621546 304 17ft 56kts
08-Sep-21 19:00 35.109864 -120.641843 266 628ft 61kts
08-Sep-21 19:01 35.097683 -120.637123 85 1105ft 71kts
08-Sep-21 19:02 35.095423 -120.611826 99 1650ft 76kts
08-Sep-21 19:03 35.094086 -120.586402 85 2197ft 75kts
08-Sep-21 19:04 35.094798 -120.560896 82 2716ft 75kts
08-Sep-21 19:05 35.098102 -120.535745 85 3205ft 75kts
08-Sep-21 19:06 35.096966 -120.510013 94 3677ft 75kts
08-Sep-21 19:07 35.096364 -120.484420 85 4121ft 75kts
08-Sep-21 19:08 35.096624 -120.458885 92 4545ft 75kts
08-Sep-21 19:09 35.095929 -120.433435 84 4945ft 75kts
08-Sep-21 19:10 35.095435 -120.407877 85 5326ft 75kts
08-Sep-21 19:11 35.095894 -120.381622 84 5515ft 77kts
08-Sep-21 19:12 35.098107 -120.355588 81 5672ft 79kts
08-Sep-21 19:13 35.098718 -120.328425 87 5860ft 80kts
08-Sep-21 19:14 35.099853 -120.298695 85 5863ft 99kts
08-Sep-21 19:15 35.100245 -120.260276 91 5643ft 119kts
08-Sep-21 19:16 35.099433 -120.219881 93 5584ft 119kts
08-Sep-21 19:18 35.096923 -120.179817 96 5527ft 118kts
08-Sep-21 19:19 35.093618 -120.139861 98 5521ft 118kts
08-Sep-21 19:20 35.091537 -120.099810 95 5533ft 118kts
08-Sep-21 19:21 35.087452 -120.060241 98 5537ft 117kts
08-Sep-21 19:22 35.076306 -120.023785 123 5536ft 114kts
08-Sep-21 19:23 35.060174 -119.990629 127 5535ft 113kts
08-Sep-21 19:24 35.044016 -119.957681 120 5527ft 113kts
08-Sep-21 19:25 35.030218 -119.923243 118 5516ft 113kts
08-Sep-21 19:26 35.017025 -119.888259 119 5506ft 113kts
08-Sep-21 19:27 35.002517 -119.854482 124 5496ft 112kts
08-Sep-21 19:28 34.986445 -119.821848 123 4985ft 113kts
08-Sep-21 19:29 34.972197 -119.787916 118 4471ft 113kts
08-Sep-21 19:30 34.959964 -119.752639 116 3971ft 113kts
08-Sep-21 19:31 34.948485 -119.716883 120 3460ft 113kts
08-Sep-21 19:32 34.934222 -119.685090 130 2914ft 97kts
08-Sep-21 19:33 34.930060 -119.665391 307 2455ft 63kts
08-Sep-21 19:34 34.938348 -119.681788 298 2192ft 46kts
08-Sep-21 19:35 34.941909 -119.690443 295 2158ft 16kts
08-Sep-21 19:36 34.943511 -119.690829 79 2154ft 4kts
08-Sep-21 19:37 34.942890 -119.690716 192 2155ft 0kts
08-Sep-21 19:38 34.942890 -119.690716 192 2155ft 0kts
08-Sep-21 19:39 34.942890 -119.690716 192 2155ft 0kts
08-Sep-21 19:40 34.942890 -119.690716 192 2155ft 0kts
08-Sep-21 19:41 34.942890 -119.690716 192 2155ft 0kts
08-Sep-21 19:41 34.942890 -119.690716 192 2155ft 0kts
08-Sep-21 19:42 34.942890 -119.690716 192 2155ft 0kts

Navigation Log

Ident Type
Flight plan parsing failed, navigation log unavailable